sensor_id;sensor_type;location;lat;lon;timestamp;temperature;humidity
59660;DHT22;45534;52.690;6.268;2023-11-22T00:00:28;4.40;99.90
59660;DHT22;45534;52.690;6.268;2023-11-22T00:02:54;4.30;99.90
59660;DHT22;45534;52.690;6.268;2023-11-22T00:05:19;4.30;99.90
59660;DHT22;45534;52.690;6.268;2023-11-22T00:07:45;4.30;99.90
59660;DHT22;45534;52.690;6.268;2023-11-22T00:10:11;4.30;99.90
59660;DHT22;45534;52.690;6.268;2023-11-22T00:12:36;4.30;99.90
59660;DHT22;45534;52.690;6.268;2023-11-22T00:15:07;4.20;99.90
59660;DHT22;45534;52.690;6.268;2023-11-22T00:17:35;4.20;99.90
59660;DHT22;45534;52.690;6.268;2023-11-22T00:20:02;4.30;99.90
59660;DHT22;45534;52.690;6.268;2023-11-22T00:22:33;4.20;99.90
59660;DHT22;45534;52.690;6.268;2023-11-22T00:25:00;4.20;99.90
59660;DHT22;45534;52.690;6.268;2023-11-22T00:27:27;4.20;99.90
59660;DHT22;45534;52.690;6.268;2023-11-22T00:29:53;4.20;99.90
59660;DHT22;45534;52.690;6.268;2023-11-22T00:32:19;4.20;99.90
59660;DHT22;45534;52.690;6.268;2023-11-22T00:34:44;4.20;99.90
59660;DHT22;45534;52.690;6.268;2023-11-22T00:37:10;4.20;99.90
59660;DHT22;45534;52.690;6.268;2023-11-22T00:39:36;4.20;99.90
59660;DHT22;45534;52.690;6.268;2023-11-22T00:42:03;4.20;99.90
59660;DHT22;45534;52.690;6.268;2023-11-22T00:44:30;4.20;99.90
59660;DHT22;45534;52.690;6.268;2023-11-22T00:46:55;4.20;99.90
59660;DHT22;45534;52.690;6.268;2023-11-22T00:49:23;4.10;99.90
59660;DHT22;45534;52.690;6.268;2023-11-22T00:51:48;4.10;99.90
59660;DHT22;45534;52.690;6.268;2023-11-22T00:54:16;4.10;99.90
59660;DHT22;45534;52.690;6.268;2023-11-22T00:56:41;4.00;99.90
59660;DHT22;45534;52.690;6.268;2023-11-22T00:59:07;4.00;99.90
59660;DHT22;45534;52.690;6.268;2023-11-22T01:01:34;3.90;99.90
59660;DHT22;45534;52.690;6.268;2023-11-22T01:03:59;3.90;99.90
59660;DHT22;45534;52.690;6.268;2023-11-22T01:06:25;3.80;99.90
59660;DHT22;45534;52.690;6.268;2023-11-22T01:08:51;3.80;99.90
59660;DHT22;45534;52.690;6.268;2023-11-22T01:11:17;3.70;99.90
59660;DHT22;45534;52.690;6.268;2023-11-22T01:13:42;3.70;99.90
59660;DHT22;45534;52.690;6.268;2023-11-22T01:16:09;3.70;99.90
59660;DHT22;45534;52.690;6.268;2023-11-22T01:18:36;3.70;99.90
59660;DHT22;45534;52.690;6.268;2023-11-22T01:21:02;3.60;99.90
59660;DHT22;45534;52.690;6.268;2023-11-22T01:23:30;3.60;99.90
59660;DHT22;45534;52.690;6.268;2023-11-22T01:26:00;3.60;99.90
59660;DHT22;45534;52.690;6.268;2023-11-22T01:28:26;3.60;99.90
59660;DHT22;45534;52.690;6.268;2023-11-22T01:30:53;3.50;99.90
59660;DHT22;45534;52.690;6.268;2023-11-22T01:33:23;3.50;99.90
59660;DHT22;45534;52.690;6.268;2023-11-22T01:35:48;3.50;99.90
59660;DHT22;45534;52.690;6.268;2023-11-22T01:38:15;3.50;99.90
59660;DHT22;45534;52.690;6.268;2023-11-22T01:40:47;3.40;99.90
59660;DHT22;45534;52.690;6.268;2023-11-22T01:43:20;3.40;99.90
59660;DHT22;45534;52.690;6.268;2023-11-22T01:45:46;3.30;99.90
59660;DHT22;45534;52.690;6.268;2023-11-22T01:48:12;3.30;99.90
59660;DHT22;45534;52.690;6.268;2023-11-22T01:50:39;3.30;99.90
59660;DHT22;45534;52.690;6.268;2023-11-22T01:53:10;3.20;99.90
59660;DHT22;45534;52.690;6.268;2023-11-22T01:55:39;3.20;99.90
59660;DHT22;45534;52.690;6.268;2023-11-22T01:58:05;3.20;99.90
59660;DHT22;45534;52.690;6.268;2023-11-22T02:00:35;3.20;99.90
59660;DHT22;45534;52.690;6.268;2023-11-22T02:03:02;3.10;99.90
59660;DHT22;45534;52.690;6.268;2023-11-22T02:05:28;3.10;99.90
59660;DHT22;45534;52.690;6.268;2023-11-22T02:07:54;3.10;99.90
59660;DHT22;45534;52.690;6.268;2023-11-22T02:10:20;3.00;99.90
59660;DHT22;45534;52.690;6.268;2023-11-22T02:12:46;3.00;99.90
59660;DHT22;45534;52.690;6.268;2023-11-22T02:15:12;3.00;99.90
59660;DHT22;45534;52.690;6.268;2023-11-22T02:17:38;3.00;99.90
59660;DHT22;45534;52.690;6.268;2023-11-22T02:20:05;3.00;99.90
59660;DHT22;45534;52.690;6.268;2023-11-22T02:22:41;3.00;99.90
59660;DHT22;45534;52.690;6.268;2023-11-22T02:25:07;2.90;99.90
59660;DHT22;45534;52.690;6.268;2023-11-22T02:27:33;2.90;99.90
59660;DHT22;45534;52.690;6.268;2023-11-22T02:29:58;2.90;99.90
59660;DHT22;45534;52.690;6.268;2023-11-22T02:32:24;2.90;99.90
59660;DHT22;45534;52.690;6.268;2023-11-22T02:34:50;2.80;99.90
59660;DHT22;45534;52.690;6.268;2023-11-22T02:37:16;2.80;99.90
59660;DHT22;45534;52.690;6.268;2023-11-22T02:42:19;2.60;99.90
59660;DHT22;45534;52.690;6.268;2023-11-22T02:44:45;2.50;99.90
59660;DHT22;45534;52.690;6.268;2023-11-22T02:47:11;2.50;99.90
59660;DHT22;45534;52.690;6.268;2023-11-22T02:49:36;2.50;99.90
59660;DHT22;45534;52.690;6.268;2023-11-22T02:52:02;2.40;99.90
59660;DHT22;45534;52.690;6.268;2023-11-22T02:54:28;2.40;99.90
59660;DHT22;45534;52.690;6.268;2023-11-22T02:56:54;2.40;99.90
59660;DHT22;45534;52.690;6.268;2023-11-22T02:59:20;2.40;99.90
59660;DHT22;45534;52.690;6.268;2023-11-22T03:01:46;2.30;99.90
59660;DHT22;45534;52.690;6.268;2023-11-22T03:04:12;2.30;99.90
59660;DHT22;45534;52.690;6.268;2023-11-22T03:06:37;2.40;99.90
59660;DHT22;45534;52.690;6.268;2023-11-22T03:09:03;2.40;99.90
59660;DHT22;45534;52.690;6.268;2023-11-22T03:11:30;2.40;99.90
59660;DHT22;45534;52.690;6.268;2023-11-22T03:13:55;2.30;99.90
59660;DHT22;45534;52.690;6.268;2023-11-22T03:16:21;2.30;99.90
59660;DHT22;45534;52.690;6.268;2023-11-22T03:18:47;2.30;99.90
59660;DHT22;45534;52.690;6.268;2023-11-22T03:21:12;2.30;99.90
59660;DHT22;45534;52.690;6.268;2023-11-22T03:23:38;2.20;99.90
59660;DHT22;45534;52.690;6.268;2023-11-22T03:26:05;2.20;99.90
59660;DHT22;45534;52.690;6.268;2023-11-22T03:28:31;2.20;99.90
59660;DHT22;45534;52.690;6.268;2023-11-22T03:30:58;2.20;99.90
59660;DHT22;45534;52.690;6.268;2023-11-22T03:33:24;2.20;99.90
59660;DHT22;45534;52.690;6.268;2023-11-22T03:35:50;2.20;99.90
59660;DHT22;45534;52.690;6.268;2023-11-22T03:38:16;2.10;99.90
59660;DHT22;45534;52.690;6.268;2023-11-22T03:40:42;2.10;99.90
59660;DHT22;45534;52.690;6.268;2023-11-22T03:43:08;2.10;99.90
59660;DHT22;45534;52.690;6.268;2023-11-22T03:45:35;2.10;99.90
59660;DHT22;45534;52.690;6.268;2023-11-22T03:48:01;2.10;99.90
59660;DHT22;45534;52.690;6.268;2023-11-22T03:50:27;2.10;99.90
59660;DHT22;45534;52.690;6.268;2023-11-22T03:52:52;2.10;99.90
59660;DHT22;45534;52.690;6.268;2023-11-22T03:55:18;2.10;99.90
59660;DHT22;45534;52.690;6.268;2023-11-22T03:57:43;2.10;99.90
59660;DHT22;45534;52.690;6.268;2023-11-22T04:00:09;2.10;99.90
59660;DHT22;45534;52.690;6.268;2023-11-22T04:02:35;2.10;99.90
59660;DHT22;45534;52.690;6.268;2023-11-22T04:05:03;2.00;99.90
59660;DHT22;45534;52.690;6.268;2023-11-22T04:07:28;2.00;99.90
59660;DHT22;45534;52.690;6.268;2023-11-22T04:09:54;1.90;99.90
59660;DHT22;45534;52.690;6.268;2023-11-22T04:12:21;1.90;99.90
59660;DHT22;45534;52.690;6.268;2023-11-22T04:14:47;1.90;99.90
59660;DHT22;45534;52.690;6.268;2023-11-22T04:17:12;1.80;99.90
59660;DHT22;45534;52.690;6.268;2023-11-22T04:19:38;1.80;99.90
59660;DHT22;45534;52.690;6.268;2023-11-22T04:22:03;1.80;99.90
59660;DHT22;45534;52.690;6.268;2023-11-22T04:24:29;1.80;99.90
59660;DHT22;45534;52.690;6.268;2023-11-22T04:26:55;1.80;99.90
59660;DHT22;45534;52.690;6.268;2023-11-22T04:29:20;1.70;99.90
59660;DHT22;45534;52.690;6.268;2023-11-22T04:31:46;1.70;99.90
59660;DHT22;45534;52.690;6.268;2023-11-22T04:34:12;1.70;99.90
59660;DHT22;45534;52.690;6.268;2023-11-22T04:36:37;1.70;99.90
59660;DHT22;45534;52.690;6.268;2023-11-22T04:39:04;1.60;99.90
59660;DHT22;45534;52.690;6.268;2023-11-22T04:41:30;1.60;99.90
59660;DHT22;45534;52.690;6.268;2023-11-22T04:43:55;1.60;99.90
59660;DHT22;45534;52.690;6.268;2023-11-22T04:46:21;1.60;99.90
59660;DHT22;45534;52.690;6.268;2023-11-22T04:48:47;1.50;99.90
59660;DHT22;45534;52.690;6.268;2023-11-22T04:51:16;1.50;99.90
59660;DHT22;45534;52.690;6.268;2023-11-22T04:53:42;1.50;99.90
59660;DHT22;45534;52.690;6.268;2023-11-22T04:56:09;1.50;99.90
59660;DHT22;45534;52.690;6.268;2023-11-22T04:58:35;1.50;99.90
59660;DHT22;45534;52.690;6.268;2023-11-22T05:01:01;1.50;99.90
59660;DHT22;45534;52.690;6.268;2023-11-22T05:03:27;1.60;99.90
59660;DHT22;45534;52.690;6.268;2023-11-22T05:05:53;1.60;99.90
59660;DHT22;45534;52.690;6.268;2023-11-22T05:08:18;1.50;99.90
59660;DHT22;45534;52.690;6.268;2023-11-22T05:10:44;1.50;99.90
59660;DHT22;45534;52.690;6.268;2023-11-22T05:13:11;1.60;99.90
59660;DHT22;45534;52.690;6.268;2023-11-22T05:15:37;1.50;99.90
59660;DHT22;45534;52.690;6.268;2023-11-22T05:18:03;1.60;99.90
59660;DHT22;45534;52.690;6.268;2023-11-22T05:20:28;1.60;99.90
59660;DHT22;45534;52.690;6.268;2023-11-22T05:22:54;1.60;99.90
59660;DHT22;45534;52.690;6.268;2023-11-22T05:25:19;1.60;99.90
59660;DHT22;45534;52.690;6.268;2023-11-22T05:27:45;1.70;99.90
59660;DHT22;45534;52.690;6.268;2023-11-22T05:30:11;1.60;99.90
59660;DHT22;45534;52.690;6.268;2023-11-22T05:32:37;1.70;99.90
59660;DHT22;45534;52.690;6.268;2023-11-22T05:35:03;1.70;99.90
59660;DHT22;45534;52.690;6.268;2023-11-22T05:37:31;1.70;99.90
59660;DHT22;45534;52.690;6.268;2023-11-22T05:39:57;1.70;99.90
59660;DHT22;45534;52.690;6.268;2023-11-22T05:42:23;1.70;99.90
59660;DHT22;45534;52.690;6.268;2023-11-22T05:44:50;1.70;99.90
59660;DHT22;45534;52.690;6.268;2023-11-22T05:47:15;1.80;99.90
59660;DHT22;45534;52.690;6.268;2023-11-22T05:49:43;1.80;99.90
59660;DHT22;45534;52.690;6.268;2023-11-22T05:52:09;1.80;99.90
59660;DHT22;45534;52.690;6.268;2023-11-22T05:54:35;1.80;99.90
59660;DHT22;45534;52.690;6.268;2023-11-22T05:57:00;1.90;99.90
59660;DHT22;45534;52.690;6.268;2023-11-22T05:59:26;1.80;99.90
59660;DHT22;45534;52.690;6.268;2023-11-22T06:01:52;1.90;99.90
59660;DHT22;45534;52.690;6.268;2023-11-22T06:04:17;1.80;99.90
59660;DHT22;45534;52.690;6.268;2023-11-22T06:06:43;1.80;99.90
59660;DHT22;45534;52.690;6.268;2023-11-22T06:09:08;1.80;99.90
59660;DHT22;45534;52.690;6.268;2023-11-22T06:11:37;1.80;99.90
59660;DHT22;45534;52.690;6.268;2023-11-22T06:14:03;1.90;99.90
59660;DHT22;45534;52.690;6.268;2023-11-22T06:16:29;1.90;99.90
59660;DHT22;45534;52.690;6.268;2023-11-22T06:18:54;1.90;99.90
59660;DHT22;45534;52.690;6.268;2023-11-22T06:21:20;1.90;99.90
59660;DHT22;45534;52.690;6.268;2023-11-22T06:23:46;1.90;99.90
59660;DHT22;45534;52.690;6.268;2023-11-22T06:26:12;1.90;99.90
59660;DHT22;45534;52.690;6.268;2023-11-22T06:28:37;1.80;99.90
59660;DHT22;45534;52.690;6.268;2023-11-22T06:31:03;1.80;99.90
59660;DHT22;45534;52.690;6.268;2023-11-22T06:33:29;1.80;99.90
59660;DHT22;45534;52.690;6.268;2023-11-22T06:35:54;1.90;99.90
59660;DHT22;45534;52.690;6.268;2023-11-22T06:38:20;1.90;99.90
59660;DHT22;45534;52.690;6.268;2023-11-22T06:40:46;1.90;99.90
59660;DHT22;45534;52.690;6.268;2023-11-22T06:43:11;1.90;99.90
59660;DHT22;45534;52.690;6.268;2023-11-22T06:45:37;2.00;99.90
59660;DHT22;45534;52.690;6.268;2023-11-22T06:48:03;2.00;99.90
59660;DHT22;45534;52.690;6.268;2023-11-22T06:50:28;1.90;99.90
59660;DHT22;45534;52.690;6.268;2023-11-22T06:52:54;1.90;99.90
59660;DHT22;45534;52.690;6.268;2023-11-22T06:55:20;1.80;99.90
59660;DHT22;45534;52.690;6.268;2023-11-22T06:57:45;1.80;99.90
59660;DHT22;45534;52.690;6.268;2023-11-22T07:00:11;1.80;99.90
59660;DHT22;45534;52.690;6.268;2023-11-22T07:02:42;1.80;99.90
59660;DHT22;45534;52.690;6.268;2023-11-22T07:05:08;1.80;99.90
59660;DHT22;45534;52.690;6.268;2023-11-22T07:07:38;1.90;99.90
59660;DHT22;45534;52.690;6.268;2023-11-22T07:10:05;1.90;99.90
59660;DHT22;45534;52.690;6.268;2023-11-22T07:12:34;1.90;99.90
59660;DHT22;45534;52.690;6.268;2023-11-22T07:15:00;1.90;99.90
59660;DHT22;45534;52.690;6.268;2023-11-22T07:17:26;1.90;99.90
59660;DHT22;45534;52.690;6.268;2023-11-22T07:19:54;1.90;99.90
59660;DHT22;45534;52.690;6.268;2023-11-22T07:22:20;1.90;99.90
59660;DHT22;45534;52.690;6.268;2023-11-22T07:24:48;1.90;99.90
59660;DHT22;45534;52.690;6.268;2023-11-22T07:27:17;2.00;99.90
59660;DHT22;45534;52.690;6.268;2023-11-22T07:29:44;2.00;99.90
59660;DHT22;45534;52.690;6.268;2023-11-22T07:32:11;2.00;99.90
59660;DHT22;45534;52.690;6.268;2023-11-22T07:34:38;2.10;99.90
59660;DHT22;45534;52.690;6.268;2023-11-22T07:37:05;2.10;99.90
59660;DHT22;45534;52.690;6.268;2023-11-22T07:39:35;2.10;99.90
59660;DHT22;45534;52.690;6.268;2023-11-22T07:42:02;2.10;99.90
59660;DHT22;45534;52.690;6.268;2023-11-22T07:44:27;2.10;99.90
59660;DHT22;45534;52.690;6.268;2023-11-22T07:46:53;2.20;99.90
59660;DHT22;45534;52.690;6.268;2023-11-22T07:49:25;2.20;99.90
59660;DHT22;45534;52.690;6.268;2023-11-22T07:51:51;2.20;99.90
59660;DHT22;45534;52.690;6.268;2023-11-22T07:54:18;2.20;99.90
59660;DHT22;45534;52.690;6.268;2023-11-22T07:56:44;2.30;99.90
59660;DHT22;45534;52.690;6.268;2023-11-22T07:59:10;2.30;99.90
59660;DHT22;45534;52.690;6.268;2023-11-22T08:01:36;2.30;99.90
59660;DHT22;45534;52.690;6.268;2023-11-22T08:04:03;2.30;99.90
59660;DHT22;45534;52.690;6.268;2023-11-22T08:06:34;2.40;99.90
59660;DHT22;45534;52.690;6.268;2023-11-22T08:09:00;2.40;99.90
59660;DHT22;45534;52.690;6.268;2023-11-22T08:11:27;2.40;99.90
59660;DHT22;45534;52.690;6.268;2023-11-22T08:13:54;2.50;99.90
59660;DHT22;45534;52.690;6.268;2023-11-22T08:16:25;2.50;99.90
59660;DHT22;45534;52.690;6.268;2023-11-22T08:18:51;2.50;99.90
59660;DHT22;45534;52.690;6.268;2023-11-22T08:21:17;2.60;99.90
59660;DHT22;45534;52.690;6.268;2023-11-22T08:23:45;2.60;99.90
59660;DHT22;45534;52.690;6.268;2023-11-22T08:26:10;2.60;99.90
59660;DHT22;45534;52.690;6.268;2023-11-22T08:28:37;2.70;99.90
59660;DHT22;45534;52.690;6.268;2023-11-22T08:31:03;2.70;99.90
59660;DHT22;45534;52.690;6.268;2023-11-22T08:33:36;2.80;99.90
59660;DHT22;45534;52.690;6.268;2023-11-22T08:36:02;2.80;99.90
59660;DHT22;45534;52.690;6.268;2023-11-22T08:38:30;2.80;99.90
59660;DHT22;45534;52.690;6.268;2023-11-22T08:41:04;2.80;99.90
59660;DHT22;45534;52.690;6.268;2023-11-22T08:43:31;2.80;99.90
59660;DHT22;45534;52.690;6.268;2023-11-22T08:45:58;2.80;99.90
59660;DHT22;45534;52.690;6.268;2023-11-22T08:48:24;2.90;99.90
59660;DHT22;45534;52.690;6.268;2023-11-22T08:50:50;2.90;99.90
59660;DHT22;45534;52.690;6.268;2023-11-22T08:53:15;2.90;99.90
59660;DHT22;45534;52.690;6.268;2023-11-22T08:55:43;2.90;99.90
59660;DHT22;45534;52.690;6.268;2023-11-22T08:58:10;3.00;99.90
59660;DHT22;45534;52.690;6.268;2023-11-22T09:00:36;3.00;99.90
59660;DHT22;45534;52.690;6.268;2023-11-22T09:03:01;3.10;99.90
59660;DHT22;45534;52.690;6.268;2023-11-22T09:05:28;3.00;99.90
59660;DHT22;45534;52.690;6.268;2023-11-22T09:07:54;3.10;99.90
59660;DHT22;45534;52.690;6.268;2023-11-22T09:10:24;3.10;99.90
59660;DHT22;45534;52.690;6.268;2023-11-22T09:12:50;3.20;99.90
59660;DHT22;45534;52.690;6.268;2023-11-22T09:15:17;3.20;99.90
59660;DHT22;45534;52.690;6.268;2023-11-22T09:17:44;3.30;99.90
59660;DHT22;45534;52.690;6.268;2023-11-22T09:20:15;3.30;99.90
59660;DHT22;45534;52.690;6.268;2023-11-22T09:22:49;3.30;99.90
59660;DHT22;45534;52.690;6.268;2023-11-22T09:25:15;3.40;99.90
59660;DHT22;45534;52.690;6.268;2023-11-22T09:27:43;3.40;99.90
59660;DHT22;45534;52.690;6.268;2023-11-22T09:30:12;3.40;99.90
59660;DHT22;45534;52.690;6.268;2023-11-22T09:32:47;3.50;99.90
59660;DHT22;45534;52.690;6.268;2023-11-22T09:35:14;3.50;99.90
59660;DHT22;45534;52.690;6.268;2023-11-22T09:37:41;3.50;99.90
59660;DHT22;45534;52.690;6.268;2023-11-22T09:40:11;3.50;99.90
59660;DHT22;45534;52.690;6.268;2023-11-22T09:42:37;3.60;99.90
59660;DHT22;45534;52.690;6.268;2023-11-22T09:45:04;3.60;99.90
59660;DHT22;45534;52.690;6.268;2023-11-22T09:47:32;3.60;99.90
59660;DHT22;45534;52.690;6.268;2023-11-22T09:50:01;3.60;99.90
59660;DHT22;45534;52.690;6.268;2023-11-22T09:52:33;3.60;99.90
59660;DHT22;45534;52.690;6.268;2023-11-22T09:55:03;3.60;99.90
59660;DHT22;45534;52.690;6.268;2023-11-22T09:57:30;3.70;99.90
59660;DHT22;45534;52.690;6.268;2023-11-22T09:59:59;3.70;99.90
59660;DHT22;45534;52.690;6.268;2023-11-22T10:02:26;3.70;99.90
59660;DHT22;45534;52.690;6.268;2023-11-22T10:04:54;3.80;99.90
59660;DHT22;45534;52.690;6.268;2023-11-22T10:07:20;3.80;99.90
59660;DHT22;45534;52.690;6.268;2023-11-22T10:09:48;3.80;99.90
59660;DHT22;45534;52.690;6.268;2023-11-22T10:12:19;3.90;99.90
59660;DHT22;45534;52.690;6.268;2023-11-22T10:14:46;4.00;99.90
59660;DHT22;45534;52.690;6.268;2023-11-22T10:17:12;4.00;99.90
59660;DHT22;45534;52.690;6.268;2023-11-22T10:19:40;4.00;99.90
59660;DHT22;45534;52.690;6.268;2023-11-22T10:22:08;4.10;99.90
59660;DHT22;45534;52.690;6.268;2023-11-22T10:24:35;4.10;99.90
59660;DHT22;45534;52.690;6.268;2023-11-22T10:27:04;4.20;99.90
59660;DHT22;45534;52.690;6.268;2023-11-22T10:29:30;4.20;99.90
59660;DHT22;45534;52.690;6.268;2023-11-22T10:31:56;4.30;99.90
59660;DHT22;45534;52.690;6.268;2023-11-22T10:34:23;4.30;99.90
59660;DHT22;45534;52.690;6.268;2023-11-22T10:36:49;4.30;99.90
59660;DHT22;45534;52.690;6.268;2023-11-22T10:39:21;4.40;99.90
59660;DHT22;45534;52.690;6.268;2023-11-22T10:41:47;4.40;99.90
59660;DHT22;45534;52.690;6.268;2023-11-22T10:44:13;4.40;99.90
59660;DHT22;45534;52.690;6.268;2023-11-22T10:46:41;4.40;99.90
59660;DHT22;45534;52.690;6.268;2023-11-22T10:49:06;4.50;99.90
59660;DHT22;45534;52.690;6.268;2023-11-22T10:51:33;4.50;99.90
59660;DHT22;45534;52.690;6.268;2023-11-22T10:54:00;4.50;99.90
59660;DHT22;45534;52.690;6.268;2023-11-22T10:56:32;4.60;99.90
59660;DHT22;45534;52.690;6.268;2023-11-22T10:59:06;4.70;99.90
59660;DHT22;45534;52.690;6.268;2023-11-22T11:01:35;4.90;99.90
59660;DHT22;45534;52.690;6.268;2023-11-22T11:06:35;5.10;99.90
59660;DHT22;45534;52.690;6.268;2023-11-22T11:09:03;5.10;99.90
59660;DHT22;45534;52.690;6.268;2023-11-22T11:11:35;5.10;99.90
59660;DHT22;45534;52.690;6.268;2023-11-22T11:14:02;5.10;99.90
59660;DHT22;45534;52.690;6.268;2023-11-22T11:16:30;5.00;99.90
59660;DHT22;45534;52.690;6.268;2023-11-22T11:18:57;5.00;99.90
59660;DHT22;45534;52.690;6.268;2023-11-22T11:21:25;4.90;99.90
59660;DHT22;45534;52.690;6.268;2023-11-22T11:23:52;4.90;99.90
59660;DHT22;45534;52.690;6.268;2023-11-22T11:26:20;4.90;99.90
59660;DHT22;45534;52.690;6.268;2023-11-22T11:28:50;5.00;99.90
59660;DHT22;45534;52.690;6.268;2023-11-22T11:31:16;5.10;99.90
59660;DHT22;45534;52.690;6.268;2023-11-22T11:36:32;5.60;99.90
59660;DHT22;45534;52.690;6.268;2023-11-22T11:38:59;5.80;99.90
59660;DHT22;45534;52.690;6.268;2023-11-22T11:41:34;5.90;99.90
59660;DHT22;45534;52.690;6.268;2023-11-22T11:44:04;6.00;99.90
59660;DHT22;45534;52.690;6.268;2023-11-22T11:46:32;6.00;99.90
59660;DHT22;45534;52.690;6.268;2023-11-22T11:48:59;6.10;99.90
59660;DHT22;45534;52.690;6.268;2023-11-22T11:51:28;6.20;99.90
59660;DHT22;45534;52.690;6.268;2023-11-22T11:53:55;6.20;99.90
59660;DHT22;45534;52.690;6.268;2023-11-22T11:56:21;6.20;99.90
59660;DHT22;45534;52.690;6.268;2023-11-22T11:58:49;6.30;99.90
59660;DHT22;45534;52.690;6.268;2023-11-22T12:01:16;6.40;99.90
59660;DHT22;45534;52.690;6.268;2023-11-22T12:03:42;6.40;99.90
59660;DHT22;45534;52.690;6.268;2023-11-22T12:06:09;6.40;99.90
59660;DHT22;45534;52.690;6.268;2023-11-22T12:08:35;6.60;99.90
59660;DHT22;45534;52.690;6.268;2023-11-22T12:11:04;6.80;99.90
59660;DHT22;45534;52.690;6.268;2023-11-22T12:13:34;7.00;99.90
59660;DHT22;45534;52.690;6.268;2023-11-22T12:16:04;7.10;99.90
59660;DHT22;45534;52.690;6.268;2023-11-22T12:18:51;7.10;99.90
59660;DHT22;45534;52.690;6.268;2023-11-22T12:21:17;7.30;99.90
59660;DHT22;45534;52.690;6.268;2023-11-22T12:23:44;7.50;99.90
59660;DHT22;45534;52.690;6.268;2023-11-22T12:26:20;7.50;99.90
59660;DHT22;45534;52.690;6.268;2023-11-22T12:28:48;7.30;99.90
59660;DHT22;45534;52.690;6.268;2023-11-22T12:31:14;7.10;99.90
59660;DHT22;45534;52.690;6.268;2023-11-22T12:33:41;6.80;99.90
59660;DHT22;45534;52.690;6.268;2023-11-22T12:36:09;6.70;99.90
59660;DHT22;45534;52.690;6.268;2023-11-22T12:38:36;6.50;99.90
59660;DHT22;45534;52.690;6.268;2023-11-22T12:41:02;6.30;99.90
59660;DHT22;45534;52.690;6.268;2023-11-22T12:43:29;6.20;99.90
59660;DHT22;45534;52.690;6.268;2023-11-22T12:46:04;6.00;99.90
59660;DHT22;45534;52.690;6.268;2023-11-22T12:48:29;5.90;99.90
59660;DHT22;45534;52.690;6.268;2023-11-22T12:50:58;5.90;99.90
59660;DHT22;45534;52.690;6.268;2023-11-22T12:53:25;5.80;99.90
59660;DHT22;45534;52.690;6.268;2023-11-22T12:55:54;5.80;99.90
59660;DHT22;45534;52.690;6.268;2023-11-22T12:58:21;5.80;99.90
59660;DHT22;45534;52.690;6.268;2023-11-22T13:00:49;5.80;99.90
59660;DHT22;45534;52.690;6.268;2023-11-22T13:03:16;5.80;99.90
59660;DHT22;45534;52.690;6.268;2023-11-22T13:05:44;5.80;99.90
59660;DHT22;45534;52.690;6.268;2023-11-22T13:08:11;5.80;99.90
59660;DHT22;45534;52.690;6.268;2023-11-22T13:10:39;5.80;99.90
59660;DHT22;45534;52.690;6.268;2023-11-22T13:13:05;5.80;99.90
59660;DHT22;45534;52.690;6.268;2023-11-22T13:15:34;5.70;99.90
59660;DHT22;45534;52.690;6.268;2023-11-22T13:18:00;5.80;99.90
59660;DHT22;45534;52.690;6.268;2023-11-22T13:20:26;5.80;99.90
59660;DHT22;45534;52.690;6.268;2023-11-22T13:22:53;5.70;99.90
59660;DHT22;45534;52.690;6.268;2023-11-22T13:25:19;5.70;99.90
59660;DHT22;45534;52.690;6.268;2023-11-22T13:27:46;5.80;99.90
59660;DHT22;45534;52.690;6.268;2023-11-22T13:30:16;5.70;99.90
59660;DHT22;45534;52.690;6.268;2023-11-22T13:32:45;5.70;99.90
59660;DHT22;45534;52.690;6.268;2023-11-22T13:35:11;5.70;99.90
59660;DHT22;45534;52.690;6.268;2023-11-22T13:37:47;5.70;99.90
59660;DHT22;45534;52.690;6.268;2023-11-22T13:40:18;5.70;99.90
59660;DHT22;45534;52.690;6.268;2023-11-22T13:42:48;5.70;99.90
59660;DHT22;45534;52.690;6.268;2023-11-22T13:45:14;5.70;99.90
59660;DHT22;45534;52.690;6.268;2023-11-22T13:47:55;5.60;99.90
59660;DHT22;45534;52.690;6.268;2023-11-22T13:50:24;5.60;99.90
59660;DHT22;45534;52.690;6.268;2023-11-22T13:52:53;5.60;99.90
59660;DHT22;45534;52.690;6.268;2023-11-22T13:55:19;5.60;99.90
59660;DHT22;45534;52.690;6.268;2023-11-22T13:57:49;5.60;99.90
59660;DHT22;45534;52.690;6.268;2023-11-22T14:00:16;5.60;99.90
59660;DHT22;45534;52.690;6.268;2023-11-22T14:02:52;5.60;99.90
59660;DHT22;45534;52.690;6.268;2023-11-22T14:05:18;5.50;99.90
59660;DHT22;45534;52.690;6.268;2023-11-22T14:07:44;5.50;99.90
59660;DHT22;45534;52.690;6.268;2023-11-22T14:10:11;5.50;99.90
59660;DHT22;45534;52.690;6.268;2023-11-22T14:12:37;5.50;99.90
59660;DHT22;45534;52.690;6.268;2023-11-22T14:15:04;5.50;99.90
59660;DHT22;45534;52.690;6.268;2023-11-22T14:17:30;5.40;99.90
59660;DHT22;45534;52.690;6.268;2023-11-22T14:19:56;5.50;99.90
59660;DHT22;45534;52.690;6.268;2023-11-22T14:22:22;5.40;99.90
59660;DHT22;45534;52.690;6.268;2023-11-22T14:24:51;5.40;99.90
59660;DHT22;45534;52.690;6.268;2023-11-22T14:27:20;5.40;99.90
59660;DHT22;45534;52.690;6.268;2023-11-22T14:29:47;5.40;99.90
59660;DHT22;45534;52.690;6.268;2023-11-22T14:32:16;5.40;99.90
59660;DHT22;45534;52.690;6.268;2023-11-22T14:34:42;5.40;99.90
59660;DHT22;45534;52.690;6.268;2023-11-22T14:37:11;5.40;99.90
59660;DHT22;45534;52.690;6.268;2023-11-22T14:39:38;5.50;99.90
59660;DHT22;45534;52.690;6.268;2023-11-22T14:42:04;5.50;99.90
59660;DHT22;45534;52.690;6.268;2023-11-22T14:44:36;5.40;99.90
59660;DHT22;45534;52.690;6.268;2023-11-22T14:47:03;5.50;99.90
59660;DHT22;45534;52.690;6.268;2023-11-22T14:49:38;5.50;99.90
59660;DHT22;45534;52.690;6.268;2023-11-22T14:52:04;5.50;99.90
59660;DHT22;45534;52.690;6.268;2023-11-22T14:54:30;5.50;99.90
59660;DHT22;45534;52.690;6.268;2023-11-22T14:56:55;5.50;99.90
59660;DHT22;45534;52.690;6.268;2023-11-22T14:59:27;5.50;99.90
59660;DHT22;45534;52.690;6.268;2023-11-22T15:01:55;5.50;99.90
59660;DHT22;45534;52.690;6.268;2023-11-22T15:04:23;5.50;99.90
59660;DHT22;45534;52.690;6.268;2023-11-22T15:06:49;5.50;99.90
59660;DHT22;45534;52.690;6.268;2023-11-22T15:09:15;5.50;99.90
59660;DHT22;45534;52.690;6.268;2023-11-22T15:11:44;5.50;99.90
59660;DHT22;45534;52.690;6.268;2023-11-22T15:14:10;5.50;99.90
59660;DHT22;45534;52.690;6.268;2023-11-22T15:16:36;5.50;99.90
59660;DHT22;45534;52.690;6.268;2023-11-22T15:19:03;5.50;99.90
59660;DHT22;45534;52.690;6.268;2023-11-22T15:21:30;5.40;99.90
59660;DHT22;45534;52.690;6.268;2023-11-22T15:23:56;5.40;99.90
59660;DHT22;45534;52.690;6.268;2023-11-22T15:26:22;5.40;99.90
59660;DHT22;45534;52.690;6.268;2023-11-22T15:28:47;5.40;99.90
59660;DHT22;45534;52.690;6.268;2023-11-22T15:31:17;5.40;99.90
59660;DHT22;45534;52.690;6.268;2023-11-22T15:33:44;5.40;99.90
59660;DHT22;45534;52.690;6.268;2023-11-22T15:36:10;5.40;99.90
59660;DHT22;45534;52.690;6.268;2023-11-22T15:38:36;5.40;99.90
59660;DHT22;45534;52.690;6.268;2023-11-22T15:41:02;5.40;99.90
59660;DHT22;45534;52.690;6.268;2023-11-22T15:43:30;5.40;99.90
59660;DHT22;45534;52.690;6.268;2023-11-22T15:45:56;5.40;99.90
59660;DHT22;45534;52.690;6.268;2023-11-22T15:48:23;5.40;99.90
59660;DHT22;45534;52.690;6.268;2023-11-22T15:50:51;5.40;99.90